sensor_id;sensor_type;location;lat;lon;timestamp;pressure;altitude;pressure_sealevel;temperature;humidity
58668;BME280;59852;43.086;25.634;2023-07-29T00:02:06;98626.94;;;18.95;nan
58668;BME280;59852;43.086;25.634;2023-07-29T00:04:32;98624.44;;;18.77;nan
58668;BME280;59852;43.086;25.634;2023-07-29T00:06:57;98612.34;;;18.66;nan
58668;BME280;59852;43.086;25.634;2023-07-29T00:09:22;98611.66;;;18.64;nan
58668;BME280;59852;43.086;25.634;2023-07-29T00:11:48;98617.34;;;18.85;nan
58668;BME280;59852;43.086;25.634;2023-07-29T00:14:13;98613.88;;;18.69;nan
58668;BME280;59852;43.086;25.634;2023-07-29T00:16:38;98606.88;;;18.68;nan
58668;BME280;59852;43.086;25.634;2023-07-29T00:19:04;98604.69;;;18.55;nan
58668;BME280;59852;43.086;25.634;2023-07-29T00:21:29;98598.56;;;18.54;nan
58668;BME280;59852;43.086;25.634;2023-07-29T00:23:55;98593.38;;;18.20;nan
58668;BME280;59852;43.086;25.634;2023-07-29T00:26:22;98600.34;;;18.29;nan
58668;BME280;59852;43.086;25.634;2023-07-29T00:28:47;98601.84;;;18.48;nan
58668;BME280;59852;43.086;25.634;2023-07-29T00:31:13;98594.09;;;18.39;nan
58668;BME280;59852;43.086;25.634;2023-07-29T00:33:38;98595.16;;;18.78;nan
58668;BME280;59852;43.086;25.634;2023-07-29T00:36:04;98591.44;;;18.47;nan
58668;BME280;59852;43.086;25.634;2023-07-29T00:38:29;98580.19;;;18.53;nan
58668;BME280;59852;43.086;25.634;2023-07-29T00:40:56;98589.78;;;18.46;nan
58668;BME280;59852;43.086;25.634;2023-07-29T00:43:22;98595.00;;;18.13;nan
58668;BME280;59852;43.086;25.634;2023-07-29T00:45:47;98593.00;;;18.15;nan
58668;BME280;59852;43.086;25.634;2023-07-29T00:48:12;98583.66;;;17.87;nan
58668;BME280;59852;43.086;25.634;2023-07-29T00:50:38;98582.63;;;17.80;nan
58668;BME280;59852;43.086;25.634;2023-07-29T00:53:03;98579.63;;;17.74;nan
58668;BME280;59852;43.086;25.634;2023-07-29T00:55:28;98577.78;;;18.17;nan
58668;BME280;59852;43.086;25.634;2023-07-29T00:57:54;98585.03;;;18.07;nan
58668;BME280;59852;43.086;25.634;2023-07-29T01:00:19;98587.56;;;17.74;nan
58668;BME280;59852;43.086;25.634;2023-07-29T01:02:45;98587.94;;;17.88;nan
58668;BME280;59852;43.086;25.634;2023-07-29T01:05:11;98587.50;;;17.66;nan
58668;BME280;59852;43.086;25.634;2023-07-29T01:07:39;98590.38;;;17.73;nan
58668;BME280;59852;43.086;25.634;2023-07-29T01:10:16;98597.09;;;17.67;nan
58668;BME280;59852;43.086;25.634;2023-07-29T01:12:51;98595.44;;;17.66;nan
58668;BME280;59852;43.086;25.634;2023-07-29T01:15:24;98593.94;;;17.98;nan
58668;BME280;59852;43.086;25.634;2023-07-29T01:18:05;98594.63;;;18.08;nan
58668;BME280;59852;43.086;25.634;2023-07-29T01:20:32;98594.31;;;18.03;nan
58668;BME280;59852;43.086;25.634;2023-07-29T01:22:58;98585.72;;;18.17;nan
58668;BME280;59852;43.086;25.634;2023-07-29T01:25:23;98591.91;;;18.34;nan
58668;BME280;59852;43.086;25.634;2023-07-29T01:27:49;98592.41;;;18.29;nan
58668;BME280;59852;43.086;25.634;2023-07-29T01:30:16;98593.19;;;18.14;nan
58668;BME280;59852;43.086;25.634;2023-07-29T01:37:35;98599.41;;;17.96;nan
58668;BME280;59852;43.086;25.634;2023-07-29T01:40:03;98607.53;;;18.03;nan
58668;BME280;59852;43.086;25.634;2023-07-29T01:42:29;98610.25;;;18.27;nan
58668;BME280;59852;43.086;25.634;2023-07-29T01:44:54;98603.97;;;18.28;nan
58668;BME280;59852;43.086;25.634;2023-07-29T01:47:20;98615.06;;;18.24;nan
58668;BME280;59852;43.086;25.634;2023-07-29T01:49:45;98615.19;;;18.14;nan
58668;BME280;59852;43.086;25.634;2023-07-29T01:52:11;98620.69;;;17.87;nan
58668;BME280;59852;43.086;25.634;2023-07-29T01:54:36;98619.94;;;18.02;nan
58668;BME280;59852;43.086;25.634;2023-07-29T01:57:02;98615.84;;;17.74;nan
58668;BME280;59852;43.086;25.634;2023-07-29T01:59:27;98611.94;;;17.86;nan
58668;BME280;59852;43.086;25.634;2023-07-29T02:01:52;98618.91;;;17.95;nan
58668;BME280;59852;43.086;25.634;2023-07-29T02:04:18;98614.97;;;17.99;nan
58668;BME280;59852;43.086;25.634;2023-07-29T02:06:43;98617.91;;;17.96;nan
58668;BME280;59852;43.086;25.634;2023-07-29T02:09:09;98619.75;;;17.96;nan
58668;BME280;59852;43.086;25.634;2023-07-29T02:11:34;98618.47;;;18.00;nan
58668;BME280;59852;43.086;25.634;2023-07-29T02:14:00;98615.09;;;17.64;nan
58668;BME280;59852;43.086;25.634;2023-07-29T02:16:25;98618.59;;;17.90;nan
58668;BME280;59852;43.086;25.634;2023-07-29T02:18:50;98613.44;;;17.63;nan
58668;BME280;59852;43.086;25.634;2023-07-29T02:21:16;98616.19;;;17.79;nan
58668;BME280;59852;43.086;25.634;2023-07-29T02:23:41;98621.00;;;17.58;nan
58668;BME280;59852;43.086;25.634;2023-07-29T02:26:06;98624.19;;;17.61;nan
58668;BME280;59852;43.086;25.634;2023-07-29T02:28:32;98624.25;;;17.43;nan
58668;BME280;59852;43.086;25.634;2023-07-29T02:34:02;98632.09;;;17.35;nan
58668;BME280;59852;43.086;25.634;2023-07-29T02:36:28;98626.34;;;17.40;nan
58668;BME280;59852;43.086;25.634;2023-07-29T02:38:53;98639.78;;;17.46;nan
58668;BME280;59852;43.086;25.634;2023-07-29T02:41:18;98635.84;;;17.51;nan
58668;BME280;59852;43.086;25.634;2023-07-29T02:43:47;98637.41;;;17.35;nan
58668;BME280;59852;43.086;25.634;2023-07-29T02:46:13;98649.59;;;17.10;nan
58668;BME280;59852;43.086;25.634;2023-07-29T02:48:38;98639.25;;;17.17;nan
58668;BME280;59852;43.086;25.634;2023-07-29T02:51:03;98644.94;;;17.04;nan
58668;BME280;59852;43.086;25.634;2023-07-29T02:53:29;98644.84;;;17.40;nan
58668;BME280;59852;43.086;25.634;2023-07-29T02:55:54;98645.84;;;17.39;nan
58668;BME280;59852;43.086;25.634;2023-07-29T02:58:19;98640.19;;;17.60;nan
58668;BME280;59852;43.086;25.634;2023-07-29T03:00:45;98649.38;;;17.47;nan
58668;BME280;59852;43.086;25.634;2023-07-29T03:03:12;98646.38;;;17.42;nan
58668;BME280;59852;43.086;25.634;2023-07-29T03:05:37;98656.13;;;17.42;nan
58668;BME280;59852;43.086;25.634;2023-07-29T03:08:03;98651.75;;;17.33;nan
58668;BME280;59852;43.086;25.634;2023-07-29T03:10:28;98653.16;;;17.45;nan
58668;BME280;59852;43.086;25.634;2023-07-29T03:12:54;98649.56;;;17.28;nan
58668;BME280;59852;43.086;25.634;2023-07-29T03:15:23;98657.31;;;17.47;nan
58668;BME280;59852;43.086;25.634;2023-07-29T03:17:48;98652.22;;;17.54;nan
58668;BME280;59852;43.086;25.634;2023-07-29T03:20:13;98649.31;;;17.39;nan
58668;BME280;59852;43.086;25.634;2023-07-29T03:22:39;98646.16;;;17.36;nan
58668;BME280;59852;43.086;25.634;2023-07-29T03:25:04;98650.81;;;17.16;nan
58668;BME280;59852;43.086;25.634;2023-07-29T03:27:30;98645.00;;;17.12;nan
58668;BME280;59852;43.086;25.634;2023-07-29T03:29:56;98645.81;;;17.31;nan
58668;BME280;59852;43.086;25.634;2023-07-29T03:32:21;98647.91;;;17.27;nan
58668;BME280;59852;43.086;25.634;2023-07-29T03:34:46;98643.72;;;16.81;nan
58668;BME280;59852;43.086;25.634;2023-07-29T03:37:12;98646.41;;;17.25;nan
58668;BME280;59852;43.086;25.634;2023-07-29T03:39:37;98651.72;;;17.07;nan
58668;BME280;59852;43.086;25.634;2023-07-29T03:42:02;98650.00;;;16.34;nan
58668;BME280;59852;43.086;25.634;2023-07-29T03:44:28;98657.63;;;16.83;nan
58668;BME280;59852;43.086;25.634;2023-07-29T03:46:54;98656.94;;;16.99;nan
58668;BME280;59852;43.086;25.634;2023-07-29T03:49:19;98660.91;;;17.20;nan
58668;BME280;59852;43.086;25.634;2023-07-29T03:51:44;98654.66;;;17.22;nan
58668;BME280;59852;43.086;25.634;2023-07-29T03:54:10;98667.44;;;16.73;nan
58668;BME280;59852;43.086;25.634;2023-07-29T03:56:35;98659.56;;;16.81;nan
58668;BME280;59852;43.086;25.634;2023-07-29T03:59:04;98667.63;;;17.59;nan
58668;BME280;59852;43.086;25.634;2023-07-29T04:01:29;98661.66;;;17.31;nan
58668;BME280;59852;43.086;25.634;2023-07-29T04:03:55;98660.00;;;17.73;nan
58668;BME280;59852;43.086;25.634;2023-07-29T04:06:20;98649.69;;;17.96;nan
58668;BME280;59852;43.086;25.634;2023-07-29T04:08:46;98657.44;;;17.90;nan
58668;BME280;59852;43.086;25.634;2023-07-29T04:11:11;98653.31;;;17.95;nan
58668;BME280;59852;43.086;25.634;2023-07-29T04:13:36;98657.63;;;17.96;nan
58668;BME280;59852;43.086;25.634;2023-07-29T04:16:03;98653.41;;;18.12;nan
58668;BME280;59852;43.086;25.634;2023-07-29T04:18:28;98658.28;;;18.32;nan
58668;BME280;59852;43.086;25.634;2023-07-29T04:20:54;98657.34;;;18.50;nan
58668;BME280;59852;43.086;25.634;2023-07-29T04:23:19;98658.75;;;18.36;nan
58668;BME280;59852;43.086;25.634;2023-07-29T04:25:44;98660.97;;;18.57;nan
58668;BME280;59852;43.086;25.634;2023-07-29T04:28:09;98661.13;;;18.47;nan
58668;BME280;59852;43.086;25.634;2023-07-29T04:30:35;98673.31;;;18.74;nan
58668;BME280;59852;43.086;25.634;2023-07-29T04:33:00;98661.72;;;18.83;nan
58668;BME280;59852;43.086;25.634;2023-07-29T04:35:25;98666.03;;;18.68;nan
58668;BME280;59852;43.086;25.634;2023-07-29T04:37:51;98673.00;;;18.94;nan
58668;BME280;59852;43.086;25.634;2023-07-29T04:40:16;98676.31;;;18.79;nan
58668;BME280;59852;43.086;25.634;2023-07-29T04:42:41;98673.97;;;18.76;nan
58668;BME280;59852;43.086;25.634;2023-07-29T04:45:07;98679.38;;;18.58;nan
58668;BME280;59852;43.086;25.634;2023-07-29T04:47:32;98685.13;;;18.46;nan
58668;BME280;59852;43.086;25.634;2023-07-29T04:49:58;98684.09;;;17.96;nan
58668;BME280;59852;43.086;25.634;2023-07-29T04:52:23;98679.50;;;18.41;nan
58668;BME280;59852;43.086;25.634;2023-07-29T04:54:48;98678.81;;;19.22;nan
58668;BME280;59852;43.086;25.634;2023-07-29T04:57:14;98679.97;;;19.43;nan
58668;BME280;59852;43.086;25.634;2023-07-29T04:59:39;98681.78;;;19.51;nan
58668;BME280;59852;43.086;25.634;2023-07-29T05:02:04;98677.00;;;19.63;nan
58668;BME280;59852;43.086;25.634;2023-07-29T05:04:30;98673.03;;;19.67;nan
58668;BME280;59852;43.086;25.634;2023-07-29T05:06:55;98681.94;;;19.82;nan
58668;BME280;59852;43.086;25.634;2023-07-29T05:09:20;98678.81;;;19.79;nan
58668;BME280;59852;43.086;25.634;2023-07-29T05:11:46;98686.75;;;19.87;nan
58668;BME280;59852;43.086;25.634;2023-07-29T05:14:15;98685.94;;;19.78;nan
58668;BME280;59852;43.086;25.634;2023-07-29T05:16:41;98689.53;;;19.85;nan
58668;BME280;59852;43.086;25.634;2023-07-29T05:19:06;98689.84;;;20.07;nan
58668;BME280;59852;43.086;25.634;2023-07-29T05:21:31;98697.22;;;19.39;nan
58668;BME280;59852;43.086;25.634;2023-07-29T05:23:57;98688.94;;;19.59;nan
58668;BME280;59852;43.086;25.634;2023-07-29T05:26:22;98694.81;;;20.01;nan
58668;BME280;59852;43.086;25.634;2023-07-29T05:28:48;98698.13;;;20.03;nan
58668;BME280;59852;43.086;25.634;2023-07-29T05:31:13;98702.75;;;20.18;nan
58668;BME280;59852;43.086;25.634;2023-07-29T05:33:41;98696.03;;;20.38;nan
58668;BME280;59852;43.086;25.634;2023-07-29T05:36:06;98701.44;;;20.53;nan
58668;BME280;59852;43.086;25.634;2023-07-29T05:38:32;98704.94;;;20.53;nan
58668;BME280;59852;43.086;25.634;2023-07-29T05:40:57;98699.06;;;20.66;nan
58668;BME280;59852;43.086;25.634;2023-07-29T05:43:25;98710.13;;;20.47;nan
58668;BME280;59852;43.086;25.634;2023-07-29T05:45:51;98714.53;;;20.62;nan
58668;BME280;59852;43.086;25.634;2023-07-29T05:48:16;98716.31;;;20.70;nan
58668;BME280;59852;43.086;25.634;2023-07-29T05:50:41;98716.47;;;20.77;nan
58668;BME280;59852;43.086;25.634;2023-07-29T05:53:07;98713.41;;;20.88;nan
58668;BME280;59852;43.086;25.634;2023-07-29T05:55:32;98711.38;;;20.90;nan
58668;BME280;59852;43.086;25.634;2023-07-29T05:57:57;98711.75;;;20.87;nan
58668;BME280;59852;43.086;25.634;2023-07-29T06:00:23;98717.63;;;21.05;nan
58668;BME280;59852;43.086;25.634;2023-07-29T06:02:48;98713.00;;;20.68;nan
58668;BME280;59852;43.086;25.634;2023-07-29T06:05:13;98710.09;;;20.86;nan
58668;BME280;59852;43.086;25.634;2023-07-29T06:07:39;98705.06;;;20.91;nan
58668;BME280;59852;43.086;25.634;2023-07-29T06:10:09;98709.50;;;21.22;nan
58668;BME280;59852;43.086;25.634;2023-07-29T06:12:37;98707.81;;;21.29;nan
58668;BME280;59852;43.086;25.634;2023-07-29T06:15:02;98709.63;;;21.51;nan
58668;BME280;59852;43.086;25.634;2023-07-29T06:17:28;98706.25;;;21.11;nan
58668;BME280;59852;43.086;25.634;2023-07-29T06:19:53;98703.78;;;21.10;nan
58668;BME280;59852;43.086;25.634;2023-07-29T06:22:18;98700.66;;;21.06;nan
58668;BME280;59852;43.086;25.634;2023-07-29T06:24:43;98696.22;;;21.44;nan
58668;BME280;59852;43.086;25.634;2023-07-29T06:27:09;98691.03;;;21.81;nan
58668;BME280;59852;43.086;25.634;2023-07-29T06:29:34;98695.16;;;21.54;nan
58668;BME280;59852;43.086;25.634;2023-07-29T06:31:59;98691.09;;;22.10;nan
58668;BME280;59852;43.086;25.634;2023-07-29T06:34:25;98687.13;;;22.21;nan
58668;BME280;59852;43.086;25.634;2023-07-29T06:36:50;98683.00;;;22.18;nan
58668;BME280;59852;43.086;25.634;2023-07-29T06:39:16;98683.56;;;22.14;nan
58668;BME280;59852;43.086;25.634;2023-07-29T06:41:41;98687.84;;;21.85;nan
58668;BME280;59852;43.086;25.634;2023-07-29T06:44:06;98692.91;;;21.95;nan
58668;BME280;59852;43.086;25.634;2023-07-29T06:46:32;98681.78;;;22.06;nan
58668;BME280;59852;43.086;25.634;2023-07-29T06:48:57;98678.41;;;22.27;nan
58668;BME280;59852;43.086;25.634;2023-07-29T06:51:22;98680.84;;;22.58;nan
58668;BME280;59852;43.086;25.634;2023-07-29T06:53:48;98683.38;;;22.66;nan
58668;BME280;59852;43.086;25.634;2023-07-29T06:56:13;98673.31;;;22.83;nan
58668;BME280;59852;43.086;25.634;2023-07-29T06:58:38;98683.34;;;22.81;nan
58668;BME280;59852;43.086;25.634;2023-07-29T07:01:04;98677.28;;;23.08;nan
58668;BME280;59852;43.086;25.634;2023-07-29T07:03:29;98684.91;;;22.90;nan
58668;BME280;59852;43.086;25.634;2023-07-29T07:05:54;98675.84;;;23.06;nan
58668;BME280;59852;43.086;25.634;2023-07-29T07:08:20;98678.75;;;22.89;nan
58668;BME280;59852;43.086;25.634;2023-07-29T07:10:46;98672.25;;;23.20;nan
58668;BME280;59852;43.086;25.634;2023-07-29T07:13:11;98677.94;;;23.32;nan
58668;BME280;59852;43.086;25.634;2023-07-29T07:15:37;98676.44;;;23.51;nan
58668;BME280;59852;43.086;25.634;2023-07-29T07:18:02;98676.91;;;23.82;nan
58668;BME280;59852;43.086;25.634;2023-07-29T07:20:27;98672.19;;;23.84;nan
58668;BME280;59852;43.086;25.634;2023-07-29T07:22:53;98670.59;;;23.96;nan
58668;BME280;59852;43.086;25.634;2023-07-29T07:25:19;98668.38;;;24.00;nan
58668;BME280;59852;43.086;25.634;2023-07-29T07:27:44;98667.47;;;24.27;nan
58668;BME280;59852;43.086;25.634;2023-07-29T07:30:09;98669.09;;;24.22;nan
58668;BME280;59852;43.086;25.634;2023-07-29T07:32:35;98673.31;;;24.38;nan
58668;BME280;59852;43.086;25.634;2023-07-29T07:35:01;98669.88;;;24.57;nan
58668;BME280;59852;43.086;25.634;2023-07-29T07:37:26;98671.63;;;24.78;nan
58668;BME280;59852;43.086;25.634;2023-07-29T07:39:52;98674.28;;;24.84;nan
58668;BME280;59852;43.086;25.634;2023-07-29T07:42:17;98669.13;;;24.76;nan
58668;BME280;59852;43.086;25.634;2023-07-29T07:44:42;98666.53;;;25.03;nan
58668;BME280;59852;43.086;25.634;2023-07-29T07:47:07;98662.34;;;24.87;nan
58668;BME280;59852;43.086;25.634;2023-07-29T07:49:33;98664.28;;;25.13;nan
58668;BME280;59852;43.086;25.634;2023-07-29T07:51:58;98668.84;;;25.39;nan
58668;BME280;59852;43.086;25.634;2023-07-29T07:54:23;98665.72;;;25.42;nan
58668;BME280;59852;43.086;25.634;2023-07-29T07:56:49;98662.22;;;25.55;nan
58668;BME280;59852;43.086;25.634;2023-07-29T07:59:14;98658.94;;;25.59;nan
58668;BME280;59852;43.086;25.634;2023-07-29T08:01:39;98658.31;;;25.57;nan
58668;BME280;59852;43.086;25.634;2023-07-29T08:04:05;98653.97;;;25.69;nan
58668;BME280;59852;43.086;25.634;2023-07-29T08:06:30;98648.41;;;25.91;nan
58668;BME280;59852;43.086;25.634;2023-07-29T08:08:56;98651.28;;;25.96;nan
58668;BME280;59852;43.086;25.634;2023-07-29T08:11:21;98642.22;;;25.97;nan
58668;BME280;59852;43.086;25.634;2023-07-29T08:13:47;98645.28;;;25.94;nan
58668;BME280;59852;43.086;25.634;2023-07-29T08:16:12;98630.22;;;26.06;nan
58668;BME280;59852;43.086;25.634;2023-07-29T08:18:37;98625.25;;;26.16;nan
58668;BME280;59852;43.086;25.634;2023-07-29T08:21:03;98630.09;;;26.39;nan
58668;BME280;59852;43.086;25.634;2023-07-29T08:23:32;98629.44;;;26.44;nan
58668;BME280;59852;43.086;25.634;2023-07-29T08:25:58;98633.41;;;26.73;nan
58668;BME280;59852;43.086;25.634;2023-07-29T08:28:45;98631.88;;;26.90;nan
58668;BME280;59852;43.086;25.634;2023-07-29T08:31:10;98633.63;;;26.71;nan
58668;BME280;59852;43.086;25.634;2023-07-29T08:33:35;98630.41;;;26.94;nan
58668;BME280;59852;43.086;25.634;2023-07-29T08:36:02;98621.25;;;27.08;nan
58668;BME280;59852;43.086;25.634;2023-07-29T08:38:27;98623.41;;;27.25;nan
58668;BME280;59852;43.086;25.634;2023-07-29T08:40:54;98617.81;;;27.26;nan
58668;BME280;59852;43.086;25.634;2023-07-29T08:43:23;98616.22;;;27.43;nan
58668;BME280;59852;43.086;25.634;2023-07-29T08:45:51;98615.50;;;27.30;nan
58668;BME280;59852;43.086;25.634;2023-07-29T08:48:18;98620.81;;;27.36;nan
58668;BME280;59852;43.086;25.634;2023-07-29T08:50:46;98610.72;;;27.07;nan
58668;BME280;59852;43.086;25.634;2023-07-29T08:53:11;98611.22;;;27.22;nan
58668;BME280;59852;43.086;25.634;2023-07-29T08:55:37;98607.81;;;27.33;nan
58668;BME280;59852;43.086;25.634;2023-07-29T08:58:03;98608.72;;;27.70;nan
58668;BME280;59852;43.086;25.634;2023-07-29T09:00:29;98602.69;;;27.50;nan
58668;BME280;59852;43.086;25.634;2023-07-29T09:02:54;98603.88;;;27.79;nan
58668;BME280;59852;43.086;25.634;2023-07-29T09:05:21;98610.47;;;27.83;nan
58668;BME280;59852;43.086;25.634;2023-07-29T09:07:46;98596.59;;;27.61;nan
58668;BME280;59852;43.086;25.634;2023-07-29T09:10:13;98595.06;;;27.72;nan
58668;BME280;59852;43.086;25.634;2023-07-29T09:12:38;98605.47;;;27.87;nan
58668;BME280;59852;43.086;25.634;2023-07-29T09:15:04;98599.41;;;27.91;nan
58668;BME280;59852;43.086;25.634;2023-07-29T09:17:31;98601.66;;;27.76;nan
58668;BME280;59852;43.086;25.634;2023-07-29T09:19:57;98602.97;;;27.67;nan
58668;BME280;59852;43.086;25.634;2023-07-29T09:22:22;98603.13;;;28.09;nan
58668;BME280;59852;43.086;25.634;2023-07-29T09:24:47;98597.56;;;28.40;nan
58668;BME280;59852;43.086;25.634;2023-07-29T09:27:25;98595.22;;;28.14;nan
58668;BME280;59852;43.086;25.634;2023-07-29T09:29:51;98597.81;;;28.20;nan
58668;BME280;59852;43.086;25.634;2023-07-29T09:32:17;98592.41;;;28.20;nan
58668;BME280;59852;43.086;25.634;2023-07-29T09:34:42;98590.56;;;28.21;nan
58668;BME280;59852;43.086;25.634;2023-07-29T09:37:08;98592.84;;;28.06;nan
58668;BME280;59852;43.086;25.634;2023-07-29T09:39:33;98588.00;;;28.44;nan
58668;BME280;59852;43.086;25.634;2023-07-29T09:41:58;98586.38;;;28.25;nan
58668;BME280;59852;43.086;25.634;2023-07-29T09:44:24;98590.72;;;28.26;nan
58668;BME280;59852;43.086;25.634;2023-07-29T09:46:49;98586.38;;;28.43;nan
58668;BME280;59852;43.086;25.634;2023-07-29T09:49:14;98584.50;;;28.85;nan
58668;BME280;59852;43.086;25.634;2023-07-29T09:51:40;98594.75;;;29.07;nan
58668;BME280;59852;43.086;25.634;2023-07-29T09:54:05;98585.22;;;28.81;nan
58668;BME280;59852;43.086;25.634;2023-07-29T09:56:30;98587.63;;;28.71;nan
58668;BME280;59852;43.086;25.634;2023-07-29T09:58:56;98588.03;;;28.86;nan
58668;BME280;59852;43.086;25.634;2023-07-29T10:01:22;98571.91;;;28.56;nan
58668;BME280;59852;43.086;25.634;2023-07-29T10:03:48;98575.09;;;28.65;nan
58668;BME280;59852;43.086;25.634;2023-07-29T10:06:14;98581.06;;;28.37;nan
58668;BME280;59852;43.086;25.634;2023-07-29T10:08:39;98581.13;;;28.90;nan
58668;BME280;59852;43.086;25.634;2023-07-29T10:11:09;98576.84;;;29.01;nan
58668;BME280;59852;43.086;25.634;2023-07-29T10:13:35;98581.78;;;29.16;nan
58668;BME280;59852;43.086;25.634;2023-07-29T10:16:01;98575.81;;;29.25;nan
58668;BME280;59852;43.086;25.634;2023-07-29T10:18:33;98573.44;;;29.29;nan
58668;BME280;59852;43.086;25.634;2023-07-29T10:20:59;98563.16;;;29.49;nan
58668;BME280;59852;43.086;25.634;2023-07-29T10:23:25;98571.09;;;29.09;nan
58668;BME280;59852;43.086;25.634;2023-07-29T10:26:06;98570.91;;;29.22;nan
58668;BME280;59852;43.086;25.634;2023-07-29T10:28:34;98573.94;;;29.26;nan
58668;BME280;59852;43.086;25.634;2023-07-29T10:31:04;98566.13;;;28.82;nan
58668;BME280;59852;43.086;25.634;2023-07-29T10:33:30;98571.19;;;28.91;nan
58668;BME280;59852;43.086;25.634;2023-07-29T10:35:57;98562.28;;;28.90;nan
58668;BME280;59852;43.086;25.634;2023-07-29T10:38:22;98551.19;;;29.10;nan
58668;BME280;59852;43.086;25.634;2023-07-29T10:40:53;98557.25;;;28.82;nan
58668;BME280;59852;43.086;25.634;2023-07-29T10:43:26;98552.38;;;29.02;nan
58668;BME280;59852;43.086;25.634;2023-07-29T10:45:52;98546.63;;;29.46;nan
58668;BME280;59852;43.086;25.634;2023-07-29T10:53:46;98538.44;;;29.29;nan
58668;BME280;59852;43.086;25.634;2023-07-29T10:56:12;98541.47;;;29.44;nan
58668;BME280;59852;43.086;25.634;2023-07-29T10:58:37;98540.63;;;29.79;nan
58668;BME280;59852;43.086;25.634;2023-07-29T11:01:03;98532.84;;;29.94;nan
58668;BME280;59852;43.086;25.634;2023-07-29T11:03:37;98540.03;;;29.77;nan
58668;BME280;59852;43.086;25.634;2023-07-29T11:06:04;98533.09;;;29.92;nan
58668;BME280;59852;43.086;25.634;2023-07-29T11:08:29;98526.78;;;29.87;nan
58668;BME280;59852;43.086;25.634;2023-07-29T11:13:25;98534.91;;;30.15;nan
58668;BME280;59852;43.086;25.634;2023-07-29T11:15:50;98531.94;;;30.29;nan
58668;BME280;59852;43.086;25.634;2023-07-29T11:18:18;98535.78;;;30.33;nan
58668;BME280;59852;43.086;25.634;2023-07-29T11:20:45;98521.34;;;30.10;nan
58668;BME280;59852;43.086;25.634;2023-07-29T11:23:11;98517.16;;;29.79;nan
58668;BME280;59852;43.086;25.634;2023-07-29T11:25:36;98513.13;;;30.05;nan
58668;BME280;59852;43.086;25.634;2023-07-29T11:28:01;98517.75;;;29.93;nan
58668;BME280;59852;43.086;25.634;2023-07-29T11:30:27;98511.72;;;30.03;nan
58668;BME280;59852;43.086;25.634;2023-07-29T11:32:54;98511.16;;;30.01;nan
58668;BME280;59852;43.086;25.634;2023-07-29T11:35:20;98514.28;;;30.38;nan
58668;BME280;59852;43.086;25.634;2023-07-29T11:37:50;98502.47;;;29.98;nan
58668;BME280;59852;43.086;25.634;2023-07-29T11:40:22;98509.63;;;30.33;nan
58668;BME280;59852;43.086;25.634;2023-07-29T11:42:48;98505.06;;;30.50;nan
58668;BME280;59852;43.086;25.634;2023-07-29T11:45:15;98500.59;;;30.11;nan
58668;BME280;59852;43.086;25.634;2023-07-29T11:47:40;98498.09;;;29.81;nan
58668;BME280;59852;43.086;25.634;2023-07-29T11:50:07;98501.38;;;30.40;nan
58668;BME280;59852;43.086;25.634;2023-07-29T11:52:39;98503.31;;;30.73;nan
58668;BME280;59852;43.086;25.634;2023-07-29T11:55:05;98499.47;;;30.69;nan
58668;BME280;59852;43.086;25.634;2023-07-29T11:57:31;98503.63;;;30.03;nan
58668;BME280;59852;43.086;25.634;2023-07-29T11:59:56;98490.16;;;29.62;nan
58668;BME280;59852;43.086;25.634;2023-07-29T12:02:22;98491.31;;;29.66;nan
58668;BME280;59852;43.086;25.634;2023-07-29T12:04:48;98488.19;;;30.26;nan
58668;BME280;59852;43.086;25.634;2023-07-29T12:07:14;98492.03;;;30.31;nan
58668;BME280;59852;43.086;25.634;2023-07-29T12:09:41;98490.59;;;30.40;nan
58668;BME280;59852;43.086;25.634;2023-07-29T12:12:07;98497.06;;;30.39;nan
58668;BME280;59852;43.086;25.634;2023-07-29T12:14:32;98495.00;;;30.46;nan
58668;BME280;59852;43.086;25.634;2023-07-29T12:17:02;98481.03;;;30.49;nan
58668;BME280;59852;43.086;25.634;2023-07-29T12:19:34;98488.34;;;30.65;nan
58668;BME280;59852;43.086;25.634;2023-07-29T12:22:01;98490.53;;;31.02;nan
58668;BME280;59852;43.086;25.634;2023-07-29T12:24:26;98494.22;;;30.96;nan
58668;BME280;59852;43.086;25.634;2023-07-29T12:26:52;98481.53;;;30.17;nan
58668;BME280;59852;43.086;25.634;2023-07-29T12:29:18;98486.56;;;30.42;nan
58668;BME280;59852;43.086;25.634;2023-07-29T12:31:46;98478.19;;;30.72;nan
58668;BME280;59852;43.086;25.634;2023-07-29T12:34:18;98474.63;;;30.38;nan
58668;BME280;59852;43.086;25.634;2023-07-29T12:36:50;98468.47;;;30.88;nan
58668;BME280;59852;43.086;25.634;2023-07-29T12:39:20;98481.47;;;30.74;nan
58668;BME280;59852;43.086;25.634;2023-07-29T12:41:46;98475.66;;;30.66;nan
58668;BME280;59852;43.086;25.634;2023-07-29T12:44:12;98469.59;;;30.92;nan
58668;BME280;59852;43.086;25.634;2023-07-29T12:46:37;98468.84;;;30.97;nan
58668;BME280;59852;43.086;25.634;2023-07-29T12:49:03;98470.31;;;31.04;nan
58668;BME280;59852;43.086;25.634;2023-07-29T12:51:28;98471.06;;;31.00;nan
58668;BME280;59852;43.086;25.634;2023-07-29T12:53:53;98472.75;;;31.06;nan
58668;BME280;59852;43.086;25.634;2023-07-29T12:56:19;98476.34;;;31.11;nan
58668;BME280;59852;43.086;25.634;2023-07-29T12:58:44;98464.09;;;31.21;nan
58668;BME280;59852;43.086;25.634;2023-07-29T13:01:10;98470.78;;;31.18;nan
58668;BME280;59852;43.086;25.634;2023-07-29T13:03:38;98465.56;;;31.11;nan
58668;BME280;59852;43.086;25.634;2023-07-29T13:06:03;98468.00;;;31.30;nan
58668;BME280;59852;43.086;25.634;2023-07-29T13:08:29;98475.13;;;31.19;nan
58668;BME280;59852;43.086;25.634;2023-07-29T13:10:55;98467.44;;;31.11;nan
58668;BME280;59852;43.086;25.634;2023-07-29T13:13:20;98467.47;;;30.77;nan
58668;BME280;59852;43.086;25.634;2023-07-29T13:15:46;98471.72;;;30.73;nan
58668;BME280;59852;43.086;25.634;2023-07-29T13:18:11;98471.81;;;30.78;nan
58668;BME280;59852;43.086;25.634;2023-07-29T13:20:36;98476.13;;;30.63;nan